Time;durP1;ratioP1;P1;durP2;ratioP2;P2;SDS_P1;SDS_P2;PMS_P1;PMS_P2;Temp;Humidity;BMP_temperature;BMP_pressure;BME280_temperature;BME280_humidity;BME280_pressure;Samples;Min_cycle;Max_cycle;Signal;HPM_P1;HPM_P2
2023/01/01 00:01:50;;;;;;;10.27;3.70;;;14.90;99.90;;;13.63;90.69;100227.91;5027210;28;20124;-80
2023/01/01 00:04:16;;;;;;;9.13;3.75;;;14.90;99.90;;;13.63;90.35;100224.38;5025564;28;20125;-79
2023/01/01 00:06:42;;;;;;;7.75;3.17;;;14.90;99.90;;;13.61;90.56;100228.97;5026422;28;20024;-80
2023/01/01 00:12:02;;;;;;;9.43;3.58;;;14.80;99.90;;;13.53;90.12;100213.59;5024941;28;20457;-80
2023/01/01 00:14:38;;;;;;;6.90;2.88;;;14.80;99.90;;;13.56;90.27;100216.00;5026921;28;20076;-80
2023/01/01 00:17:04;;;;;;;6.82;3.38;;;14.80;99.90;;;13.50;90.42;100212.00;5029100;28;20062;-80
2023/01/01 00:19:30;;;;;;;8.35;3.40;;;14.80;99.90;;;13.53;89.74;100203.00;5025479;28;20148;-80
2023/01/01 00:21:55;;;;;;;10.77;3.55;;;14.80;99.90;;;13.53;89.29;100205.66;5024949;28;20244;-80
2023/01/01 00:24:30;;;;;;;6.93;3.40;;;14.80;99.90;;;13.52;88.97;100203.97;5033354;28;20029;-80
2023/01/01 00:26:56;;;;;;;7.00;3.25;;;14.80;99.90;;;13.45;89.19;100200.03;5026285;28;20038;-79
2023/01/01 00:29:22;;;;;;;11.13;3.45;;;14.70;99.90;;;13.37;88.86;100205.84;5026712;28;20026;-81
2023/01/01 00:31:51;;;;;;;9.88;2.97;;;14.70;99.90;;;13.37;88.97;100207.63;5026739;28;20433;-79
2023/01/01 00:34:19;;;;;;;6.15;2.83;;;14.70;99.90;;;13.36;88.69;100212.06;5025411;28;20087;-79
2023/01/01 00:36:45;;;;;;;12.93;3.90;;;14.70;99.90;;;13.35;88.68;100215.66;5008354;28;20038;-80
2023/01/01 00:39:11;;;;;;;12.88;3.50;;;14.60;99.90;;;13.38;88.32;100225.19;5027271;28;20097;-80
2023/01/01 00:41:36;;;;;;;10.88;4.15;;;14.60;99.90;;;13.41;87.97;100219.69;5026200;28;20030;-79
2023/01/01 00:44:02;;;;;;;10.55;3.00;;;14.60;99.90;;;13.43;87.54;100225.72;5028289;28;20094;-79
2023/01/01 00:46:28;;;;;;;7.40;3.28;;;14.70;99.90;;;13.42;87.37;100216.94;5028089;28;20097;-80
2023/01/01 00:48:54;;;;;;;8.07;3.05;;;14.70;99.90;;;13.41;86.90;100217.03;5016095;28;20080;-81
2023/01/01 00:51:22;;;;;;;10.35;2.90;;;14.70;99.90;;;13.42;86.71;100216.09;5028883;28;20037;-80
2023/01/01 00:53:48;;;;;;;7.43;2.90;;;14.70;99.90;;;13.40;86.55;100218.84;5019423;28;20037;-79
2023/01/01 00:56:13;;;;;;;9.30;3.35;;;14.70;99.90;;;13.39;86.01;100211.88;5031423;28;20026;-79
2023/01/01 00:58:39;;;;;;;7.53;3.05;;;14.70;99.90;;;13.39;86.17;100217.16;5031119;28;20157;-80
2023/01/01 01:01:05;;;;;;;9.95;3.10;;;14.70;99.90;;;13.40;85.55;100229.44;5029193;28;20034;-80
2023/01/01 01:03:31;;;;;;;16.35;3.97;;;14.70;99.90;;;13.37;85.53;100224.34;5020661;28;20025;-80
2023/01/01 01:06:03;;;;;;;10.75;3.15;;;14.70;99.90;;;13.40;85.53;100233.88;5035060;28;20087;-79
2023/01/01 01:08:32;;;;;;;16.33;3.40;;;14.60;99.90;;;13.39;85.00;100242.75;5030895;28;20041;-80
2023/01/01 01:11:10;;;;;;;12.10;3.25;;;14.70;99.90;;;13.40;84.79;100239.16;5027379;28;20049;-79
2023/01/01 01:13:36;;;;;;;13.77;3.05;;;14.70;99.90;;;13.43;84.50;100254.81;5046361;28;20041;-79
2023/01/01 01:16:33;;;;;;;14.25;3.45;;;14.70;99.90;;;13.44;83.84;100259.16;5034358;28;20018;-81
2023/01/01 01:19:04;;;;;;;10.10;3.65;;;14.70;99.90;;;13.44;83.68;100252.06;5009472;28;20061;-79
2023/01/01 01:21:32;;;;;;;9.45;3.00;;;14.70;99.90;;;13.45;83.49;100244.97;5029100;28;20034;-80
2023/01/01 01:24:01;;;;;;;13.57;3.30;;;14.70;99.90;;;13.44;83.17;100256.53;5027875;28;20040;-80
2023/01/01 01:26:35;;;;;;;12.80;3.45;;;14.70;99.90;;;13.45;82.64;100251.13;5028388;28;20029;-79
2023/01/01 01:29:01;;;;;;;13.50;3.20;;;14.70;99.90;;;13.46;82.61;100255.47;5013555;28;20029;-80
2023/01/01 01:31:31;;;;;;;10.43;3.10;;;14.70;99.90;;;13.49;82.43;100260.53;5030493;28;20041;-80
2023/01/01 01:34:04;;;;;;;11.55;3.10;;;14.70;99.90;;;13.50;81.73;100261.41;5012376;28;20034;-79
2023/01/01 01:36:30;;;;;;;13.63;3.50;;;14.80;99.90;;;13.52;81.55;100276.22;5028839;28;20024;-79
2023/01/01 01:38:56;;;;;;;13.02;2.78;;;14.80;99.90;;;13.54;81.36;100276.09;5012054;28;20496;-80
2023/01/01 01:41:32;;;;;;;12.95;2.97;;;14.80;99.90;;;13.51;81.48;100271.03;5032275;28;20034;-80
2023/01/01 01:44:06;;;;;;;13.75;3.30;;;14.80;99.90;;;13.53;81.07;100277.91;5030222;28;20041;-79
2023/01/01 01:46:40;;;;;;;7.57;2.80;;;14.80;99.90;;;13.54;81.03;100268.16;5029512;28;20109;-80
2023/01/01 01:49:20;;;;;;;11.27;2.95;;;14.80;99.90;;;13.54;80.85;100274.34;5011528;28;20061;-79
2023/01/01 01:51:47;;;;;;;14.18;2.72;;;14.80;99.90;;;13.53;81.03;100272.63;5031213;28;20041;-79
2023/01/01 01:54:23;;;;;;;11.43;2.88;;;14.80;99.90;;;13.52;81.20;100275.38;5029834;28;20375;-80
2023/01/01 01:56:58;;;;;;;8.13;2.83;;;14.80;99.90;;;13.51;80.37;100266.59;5029429;28;20044;-80
2023/01/01 01:59:28;;;;;;;13.32;2.70;;;14.80;99.90;;;13.53;80.32;100269.97;5025729;28;20494;-78
2023/01/01 02:01:55;;;;;;;15.13;2.72;;;14.80;99.90;;;13.53;80.00;100271.78;5010665;28;20060;-79
2023/01/01 02:04:24;;;;;;;7.32;2.85;;;14.80;99.90;;;13.51;80.03;100268.38;5030815;28;20033;-80
2023/01/01 02:06:51;;;;;;;13.15;3.55;;;14.80;99.90;;;13.51;80.37;100278.97;5013342;28;20120;-80
2023/01/01 02:09:17;;;;;;;20.58;3.08;;;14.80;99.90;;;13.51;79.99;100277.16;5029063;28;20041;-79
2023/01/01 02:11:43;;;;;;;13.00;2.85;;;14.80;99.90;;;13.50;79.96;100290.50;5011442;28;20045;-79
2023/01/01 02:14:09;;;;;;;11.90;3.50;;;14.80;99.90;;;13.50;79.96;100274.63;5019294;28;20553;-79
2023/01/01 02:16:59;;;;;;;12.43;3.30;;;14.70;99.90;;;13.50;79.81;100282.56;5031169;28;20070;-80
2023/01/01 02:19:55;;;;;;;7.75;2.65;;;14.70;99.90;;;13.49;79.75;100278.22;5028563;28;20124;-80
2023/01/01 02:22:35;;;;;;;18.60;3.65;;;14.80;99.90;;;13.49;79.44;100270.28;5027529;28;20033;-81
2023/01/01 02:25:21;;;;;;;15.57;3.08;;;14.80;99.90;;;13.51;78.87;100277.16;5027870;28;20105;-80
2023/01/01 02:28:03;;;;;;;11.25;2.83;;;14.80;99.90;;;13.54;78.63;100276.09;5031317;28;20112;-79
2023/01/01 02:30:35;;;;;;;13.05;3.20;;;14.80;99.90;;;13.57;78.80;100283.84;5016538;28;20399;-80
2023/01/01 02:33:13;;;;;;;13.95;2.95;;;14.80;99.90;;;13.56;78.74;100271.56;5026787;28;20129;-80
2023/01/01 02:35:57;;;;;;;23.75;3.95;;;14.80;99.90;;;13.55;78.72;100275.16;5028465;28;20057;-79
2023/01/01 02:38:48;;;;;;;12.50;2.63;;;14.80;99.90;;;13.54;78.48;100270.81;5024704;23;20050;-80
2023/01/01 02:41:30;;;;;;;11.50;3.55;;;14.80;99.90;;;13.53;79.06;100263.84;4997237;28;20045;-79
2023/01/01 02:43:56;;;;;;;19.08;3.03;;;14.80;99.90;;;13.53;78.17;100269.13;4995129;28;20120;-78
2023/01/01 02:46:22;;;;;;;11.18;3.08;;;14.80;99.90;;;13.55;77.95;100269.88;4996387;28;20026;-80
2023/01/01 02:48:52;;;;;;;11.55;3.30;;;14.80;99.90;;;13.59;78.33;100268.72;4994648;28;20022;-79
2023/01/01 02:51:41;;;;;;;18.60;3.50;;;14.80;99.90;;;13.56;77.99;100276.00;4991846;28;20068;-78
2023/01/01 02:54:15;;;;;;;16.02;3.03;;;14.80;99.90;;;13.57;77.88;100278.56;5012548;28;20459;-79
2023/01/01 03:02:46;;;;;;;13.07;3.17;;;14.80;99.90;;;13.54;77.52;100265.53;5055962;28;20484;-80
2023/01/01 03:09:30;;;;;;;12.95;3.85;;;14.80;99.90;;;13.56;77.41;100279.50;5051785;28;20095;-79
2023/01/01 03:12:42;;;;;;;19.33;4.32;;;14.80;99.90;;;13.57;77.39;100283.00;5037597;28;20048;-79
2023/01/01 03:15:29;;;;;;;17.55;4.45;;;14.80;99.90;;;13.52;77.54;100286.81;5047670;28;20040;-79
2023/01/01 03:18:07;;;;;;;16.98;4.20;;;14.80;99.90;;;13.52;77.53;100281.53;5047586;28;20035;-79
2023/01/01 03:20:46;;;;;;;16.35;4.20;;;14.80;99.90;;;13.55;77.52;100291.03;5045315;28;20403;-79
2023/01/01 03:23:25;;;;;;;12.57;4.53;;;14.80;99.90;;;13.53;77.54;100293.78;5045076;28;20043;-80
2023/01/01 03:25:56;;;;;;;17.40;4.70;;;14.80;99.90;;;13.56;77.24;100297.16;5037008;28;20101;-79
2023/01/01 03:28:31;;;;;;;19.92;5.28;;;14.80;99.90;;;13.57;77.08;100291.78;5038418;28;20503;-80
2023/01/01 03:30:58;;;;;;;16.17;5.03;;;14.80;99.90;;;13.58;77.06;100296.13;5057163;28;20053;-79
2023/01/01 03:33:37;;;;;;;15.25;5.03;;;14.80;99.90;;;13.55;77.12;100296.34;5036602;28;20444;-79
2023/01/01 03:36:17;;;;;;;18.73;5.15;;;14.80;99.90;;;13.54;77.01;100303.44;5030924;28;20033;-80
2023/01/01 03:39:00;;;;;;;20.27;5.47;;;14.80;99.90;;;13.54;77.17;100299.91;5041514;23;20678;-81
2023/01/01 03:41:45;;;;;;;17.70;4.72;;;14.80;99.90;;;13.53;76.60;100304.34;4990984;28;20040;-80
2023/01/01 03:44:32;;;;;;;15.35;4.60;;;14.80;99.90;;;13.55;77.00;100309.56;5015099;28;20452;-80
2023/01/01 03:46:59;;;;;;;7.63;3.13;;;14.80;99.90;;;13.59;76.77;100320.78;5006090;28;20027;-79
2023/01/01 03:49:33;;;;;;;22.00;5.03;;;14.80;99.90;;;13.54;76.78;100318.44;4977022;28;20411;-79
2023/01/01 03:52:35;;;;;;;19.77;5.65;;;14.80;99.90;;;13.55;76.47;100317.50;4980008;28;20027;-79
2023/01/01 03:55:40;;;;;;;22.20;5.75;;;14.80;99.90;;;13.56;76.80;100318.34;4996578;28;20034;-79
2023/01/01 03:58:27;;;;;;;15.07;5.93;;;14.80;99.90;;;13.52;77.02;100323.00;5011609;23;20056;-78
2023/01/01 04:01:11;;;;;;;18.15;5.55;;;14.80;99.90;;;13.53;76.79;100324.69;5034340;28;20030;-80
2023/01/01 04:03:39;;;;;;;16.05;5.65;;;14.80;99.90;;;13.49;76.69;100313.44;5035528;28;20112;-80
2023/01/01 04:06:06;;;;;;;21.27;5.93;;;14.80;99.90;;;13.51;77.10;100323.94;5036417;28;20029;-79
2023/01/01 04:08:34;;;;;;;24.63;6.10;;;14.80;99.90;;;13.56;76.58;100318.34;5026563;28;20030;-79
2023/01/01 04:12:00;;;;;;;17.45;4.72;;;14.80;99.90;;;13.54;76.52;100318.44;5026463;28;20034;-80
2023/01/01 04:13:53;;;;;;;25.52;6.10;;;14.80;99.90;;;13.56;76.55;100307.75;5022592;28;20037;-81
2023/01/01 04:16:19;;;;;;;18.15;5.90;;;14.80;99.90;;;13.56;76.31;100303.31;5014858;28;20026;-79
2023/01/01 04:18:47;;;;;;;19.30;6.13;;;14.80;99.90;;;13.53;76.28;100319.38;5018080;23;20100;-79
2023/01/01 04:21:15;;;;;;;19.70;5.78;;;14.80;99.90;;;13.53;76.29;100320.22;4980722;28;20034;-80
2023/01/01 04:23:41;;;;;;;14.15;6.18;;;14.80;99.90;;;13.54;75.91;100315.78;4995403;28;20034;-80
2023/01/01 04:26:15;;;;;;;22.95;5.38;;;14.80;99.90;;;13.48;76.03;100310.91;4997910;28;20804;-79
2023/01/01 04:28:43;;;;;;;17.38;4.95;;;14.70;99.90;;;13.45;75.98;100329.63;4997430;28;20023;-80
2023/01/01 04:31:10;;;;;;;21.42;6.07;;;14.70;99.90;;;13.43;75.97;100319.13;4999895;28;20034;-80
2023/01/01 04:33:36;;;;;;;22.48;6.07;;;14.70;99.90;;;13.42;75.95;100332.47;5016051;28;20050;-80
2023/01/01 04:36:07;;;;;;;14.57;5.07;;;14.70;99.90;;;13.43;76.14;100340.28;4980931;28;20018;-79
2023/01/01 04:38:35;;;;;;;19.50;5.63;;;14.70;99.90;;;13.43;76.24;100345.56;5000474;28;20026;-79
2023/01/01 04:41:02;;;;;;;17.02;5.65;;;14.70;99.90;;;13.45;76.04;100350.78;4983022;28;20026;-79
2023/01/01 04:43:29;;;;;;;19.92;5.45;;;14.70;99.90;;;13.49;76.11;100350.47;4999808;28;20042;-80
2023/01/01 04:46:06;;;;;;;20.13;5.63;;;14.80;99.90;;;13.55;75.84;100349.25;5014220;28;20030;-80
2023/01/01 04:48:34;;;;;;;20.02;5.57;;;14.80;99.90;;;13.62;75.74;100352.31;4982463;28;20034;-79
2023/01/01 04:51:07;;;;;;;13.38;4.55;;;14.80;99.90;;;13.66;75.29;100359.13;4997830;28;20554;-80
2023/01/01 04:53:33;;;;;;;17.85;6.13;;;14.80;99.90;;;13.67;75.25;100366.97;5000211;28;20081;-79
2023/01/01 04:56:11;;;;;;;18.27;5.05;;;14.90;99.90;;;13.68;75.36;100363.34;5016913;28;20053;-80
2023/01/01 04:58:39;;;;;;;19.50;5.32;;;14.90;99.90;;;13.70;75.42;100363.25;5046854;22;20055;-78
2023/01/01 05:01:06;;;;;;;25.65;5.65;;;14.90;99.90;;;13.69;75.34;100362.41;5028648;28;20026;-78
2023/01/01 05:03:35;;;;;;;17.70;4.78;;;14.90;99.90;;;13.71;75.05;100373.75;5008281;28;20029;-78
2023/01/01 05:06:09;;;;;;;20.05;5.47;;;14.90;99.90;;;13.71;74.68;100371.13;5014036;28;20041;-79
2023/01/01 05:08:47;;;;;;;19.20;5.30;;;14.90;99.90;;;13.70;75.01;100369.41;5012549;28;20021;-79
2023/01/01 05:11:25;;;;;;;19.52;5.18;;;14.90;99.90;;;13.70;75.09;100364.09;5026312;28;20030;-79
2023/01/01 05:13:53;;;;;;;21.15;6.07;;;14.90;99.90;;;13.69;75.06;100367.72;5023476;28;20165;-80
2023/01/01 05:16:30;;;;;;;12.95;4.38;;;14.90;99.90;;;13.71;74.90;100357.00;5018306;28;20026;-79
2023/01/01 05:18:56;;;;;;;21.35;5.68;;;14.90;99.90;;;13.72;74.93;100364.84;5012748;28;20033;-78
2023/01/01 05:21:30;;;;;;;15.63;5.07;;;14.90;99.90;;;13.72;75.17;100374.59;5010408;28;20037;-80
2023/01/01 05:24:00;;;;;;;21.42;4.75;;;14.90;99.90;;;13.72;74.95;100380.72;5025666;28;20387;-80
2023/01/01 05:26:36;;;;;;;22.60;5.32;;;14.90;99.90;;;13.72;75.70;100379.88;5025983;28;20033;-79
2023/01/01 05:29:02;;;;;;;21.73;5.17;;;14.90;99.90;;;13.68;75.74;100387.16;5027713;28;20512;-80
2023/01/01 05:31:32;;;;;;;15.20;5.50;;;14.90;99.90;;;13.65;75.60;100382.09;5029582;28;20057;-79
2023/01/01 05:33:59;;;;;;;14.38;4.68;;;14.90;99.90;;;13.67;75.70;100396.06;5031703;28;20033;-79
2023/01/01 05:36:29;;;;;;;18.73;5.25;;;14.90;99.90;;;13.66;75.56;100383.78;5022461;28;20069;-79
2023/01/01 05:38:57;;;;;;;15.75;5.22;;;14.90;99.90;;;13.68;75.76;100399.56;5015104;28;20482;-79
2023/01/01 05:41:23;;;;;;;22.45;5.45;;;14.90;99.90;;;13.67;75.84;100406.66;5015142;28;20124;-79
2023/01/01 05:43:54;;;;;;;18.55;5.38;;;14.90;99.90;;;13.68;76.00;100418.06;5031838;28;20025;-80
2023/01/01 05:46:23;;;;;;;19.45;5.18;;;14.90;99.90;;;13.66;75.81;100407.59;5033227;28;20032;-79
2023/01/01 05:48:51;;;;;;;16.33;5.80;;;14.90;99.90;;;13.65;75.97;100415.59;5011935;28;20026;-79
2023/01/01 05:51:25;;;;;;;15.93;5.13;;;14.90;99.90;;;13.59;75.92;100408.94;5014830;28;20060;-79
2023/01/01 05:53:53;;;;;;;18.17;5.10;;;14.80;99.90;;;13.62;75.79;100413.19;5014812;28;20030;-80
2023/01/01 05:56:19;;;;;;;19.83;5.30;;;14.80;99.90;;;13.61;75.79;100417.63;5031259;28;20100;-79
2023/01/01 05:58:54;;;;;;;13.25;4.22;;;14.80;99.90;;;13.61;75.68;100422.06;5025587;28;20030;-79
2023/01/01 06:01:34;;;;;;;15.20;4.83;;;14.80;99.90;;;13.59;75.82;100423.97;5028447;28;20025;-80
2023/01/01 06:03:59;;;;;;;24.23;5.22;;;14.80;99.90;;;13.59;76.15;100424.81;5031433;28;20033;-80
2023/01/01 06:06:37;;;;;;;16.98;4.90;;;14.80;99.90;;;13.59;75.83;100426.63;5029185;28;20144;-80
2023/01/01 06:09:04;;;;;;;14.52;4.70;;;14.80;99.90;;;13.65;75.87;100444.72;5025652;28;20030;-80
2023/01/01 06:11:31;;;;;;;14.20;4.88;;;14.90;99.90;;;13.74;75.68;100441.50;5021591;28;20394;-79
2023/01/01 06:14:02;;;;;;;14.98;4.70;;;14.90;99.90;;;13.80;75.61;100445.53;5021754;28;20056;-79
2023/01/01 06:16:29;;;;;;;13.57;4.70;;;15.00;99.90;;;13.83;75.65;100440.91;5025457;28;20030;-80
2023/01/01 06:18:55;;;;;;;19.30;5.63;;;15.00;99.90;;;13.89;75.61;100448.44;5026048;28;20026;-79
2023/01/01 06:21:27;;;;;;;15.55;4.85;;;15.10;99.90;;;13.90;75.53;100449.28;5025641;28;20041;-80
2023/01/01 06:23:58;;;;;;;16.13;5.10;;;15.10;99.90;;;13.92;75.57;100450.03;5022476;28;20034;-80
2023/01/01 06:26:32;;;;;;;16.58;5.03;;;15.10;99.90;;;13.91;75.70;100435.13;5028553;28;20041;-80
2023/01/01 06:28:59;;;;;;;15.65;4.68;;;15.10;99.90;;;13.89;75.56;100435.22;5026674;28;20034;-79
2023/01/01 06:31:26;;;;;;;15.90;5.38;;;15.10;99.90;;;13.90;75.56;100449.28;5026843;28;20061;-79
2023/01/01 06:33:52;;;;;;;12.13;5.43;;;15.10;99.90;;;13.90;75.57;100444.00;5026606;28;20029;-80
2023/01/01 06:36:22;;;;;;;14.82;5.20;;;15.10;99.90;;;13.87;75.58;100449.50;5027612;28;20026;-79
2023/01/01 06:38:52;;;;;;;20.50;6.10;;;15.00;99.90;;;13.82;75.95;100449.81;5029542;28;20040;-80
2023/01/01 06:41:23;;;;;;;17.30;5.25;;;15.00;99.90;;;13.75;75.79;100437.88;5012850;28;20045;-79
2023/01/01 06:43:57;;;;;;;16.55;5.32;;;15.00;99.90;;;13.68;75.79;100450.66;5025401;28;20098;-79
2023/01/01 06:46:28;;;;;;;14.57;5.10;;;14.90;99.90;;;13.64;75.74;100451.81;5026101;28;20041;-80
2023/01/01 06:49:11;;;;;;;17.25;5.50;;;14.90;99.90;;;13.63;76.19;100459.84;5009869;28;20052;-79
2023/01/01 06:51:40;;;;;;;16.88;5.25;;;14.80;99.90;;;13.60;76.05;100467.97;5026354;28;20685;-80
2023/01/01 06:54:07;;;;;;;14.43;5.45;;;14.80;99.90;;;13.59;76.04;100466.28;5030457;28;20048;-79
2023/01/01 06:56:33;;;;;;;20.05;5.72;;;14.80;99.90;;;13.58;76.38;100461.94;5011943;28;20018;-80
2023/01/01 06:59:00;;;;;;;17.70;5.50;;;14.80;99.90;;;13.54;76.05;100461.25;5029028;28;20116;-79
2023/01/01 07:01:31;;;;;;;20.90;5.60;;;14.70;99.90;;;13.49;75.78;100468.66;5029443;28;20030;-78
2023/01/01 07:04:03;;;;;;;14.45;5.25;;;14.70;99.90;;;13.48;75.91;100470.47;5024580;28;20524;-78
2023/01/01 07:06:34;;;;;;;15.98;5.95;;;14.70;99.90;;;13.46;75.82;100463.56;5029479;28;20399;-79
2023/01/01 07:09:00;;;;;;;13.10;4.70;;;14.70;99.90;;;13.41;75.84;100455.06;5011053;28;20027;-79
2023/01/01 07:11:27;;;;;;;23.45;4.95;;;14.60;99.90;;;13.40;75.60;100456.00;5023190;28;20072;-79
2023/01/01 07:13:53;;;;;;;13.98;4.55;;;14.70;99.90;;;13.40;75.31;100450.72;5027628;28;20029;-80
2023/01/01 07:16:20;;;;;;;13.13;4.13;;;14.60;99.90;;;13.38;75.12;100460.53;5029589;28;20025;-80
2023/01/01 07:18:53;;;;;;;11.82;4.20;;;14.60;99.90;;;13.30;75.08;100466.31;5019541;28;20021;-79
2023/01/01 07:21:42;;;;;;;18.63;4.63;;;14.60;99.90;;;13.28;74.66;100469.06;5024031;28;20529;-80
2023/01/01 07:24:11;;;;;;;21.10;5.15;;;14.60;99.90;;;13.28;74.73;100471.72;5026827;28;20030;-79
2023/01/01 07:26:37;;;;;;;18.98;5.05;;;14.50;99.90;;;13.32;74.56;100486.41;5029988;28;20119;-78
2023/01/01 07:29:04;;;;;;;13.05;3.72;;;14.60;99.90;;;13.34;74.45;100494.25;5031122;28;20025;-79
2023/01/01 07:31:30;;;;;;;25.75;4.50;;;14.60;99.90;;;13.32;73.93;100494.34;5031639;28;20037;-80
2023/01/01 07:33:56;;;;;;;22.05;4.70;;;14.60;99.90;;;13.35;73.94;100495.97;5027182;28;20619;-79
2023/01/01 07:36:27;;;;;;;16.88;3.92;;;14.60;99.90;;;13.33;73.73;100490.78;5031034;28;20108;-80
2023/01/01 07:38:52;;;;;;;16.40;4.35;;;14.60;99.90;;;13.32;73.56;100507.56;5029934;28;20030;-79
2023/01/01 07:41:18;;;;;;;17.95;4.30;;;14.60;99.90;;;13.34;73.18;100505.69;5026388;28;20052;-79
2023/01/01 07:43:44;;;;;;;17.13;4.20;;;14.60;99.90;;;13.34;73.19;100515.41;5027417;28;20052;-79
2023/01/01 07:46:20;;;;;;;15.77;4.35;;;14.60;99.90;;;13.36;73.16;100518.81;5009496;28;20088;-78
2023/01/01 07:48:46;;;;;;;14.25;4.05;;;14.60;99.90;;;13.33;73.10;100519.00;5028900;28;20094;-78
2023/01/01 07:51:12;;;;;;;15.77;3.85;;;14.60;99.90;;;13.34;72.49;100524.19;5026949;28;20025;-79
2023/01/01 07:53:37;;;;;;;20.85;3.97;;;14.60;99.90;;;13.39;72.59;100523.94;5026657;28;20021;-80
2023/01/01 07:56:04;;;;;;;15.85;4.30;;;14.60;99.90;;;13.40;71.91;100530.06;5012687;28;20086;-80
2023/01/01 07:58:37;;;;;;;12.50;3.85;;;14.70;99.90;;;13.40;72.11;100525.63;5021003;28;20025;-80
2023/01/01 08:01:03;;;;;;;15.60;4.03;;;14.60;99.90;;;13.44;71.19;100531.56;5028395;28;20041;-80
2023/01/01 08:03:29;;;;;;;15.85;3.97;;;14.70;99.90;;;13.46;71.41;100532.34;5029100;28;20033;-80
2023/01/01 08:05:55;;;;;;;8.55;3.10;;;14.70;99.90;;;13.48;71.04;100536.59;5022897;28;20092;-79
2023/01/01 08:08:28;;;;;;;9.43;3.30;;;14.70;99.90;;;13.50;70.91;100536.50;5027226;28;20049;-80
2023/01/01 08:10:59;;;;;;;12.10;3.65;;;14.80;99.90;;;13.51;70.82;100546.97;5010277;28;20395;-79
2023/01/01 08:13:27;;;;;;;12.43;3.92;;;14.80;99.90;;;13.56;70.34;100553.75;5009083;28;20108;-79
2023/01/01 08:15:56;;;;;;;13.90;3.60;;;14.80;99.90;;;13.57;70.14;100545.75;5007433;28;20064;-80
2023/01/01 08:18:22;;;;;;;16.60;3.35;;;14.80;99.90;;;13.61;69.78;100554.34;5026676;28;20494;-79
2023/01/01 08:20:48;;;;;;;13.52;3.63;;;14.80;99.90;;;13.66;69.32;100562.84;5025281;28;20073;-80
2023/01/01 08:23:14;;;;;;;13.13;3.55;;;14.90;99.90;;;13.68;69.65;100571.53;5006225;28;20037;-81
2023/01/01 08:25:39;;;;;;;14.13;3.58;;;14.90;99.90;;;13.71;68.76;100563.38;5006963;28;20048;-80
2023/01/01 08:28:10;;;;;;;15.10;3.75;;;15.00;99.90;;;13.77;68.81;100570.94;5009775;28;20572;-81
2023/01/01 08:30:36;;;;;;;17.10;3.17;;;15.00;99.90;;;13.82;68.98;100575.94;5023545;28;20087;-80
2023/01/01 08:33:02;;;;;;;15.85;3.65;;;15.00;99.90;;;13.89;68.56;100564.91;5023779;28;20116;-80
2023/01/01 08:35:27;;;;;;;12.60;3.50;;;15.10;99.90;;;13.93;68.38;100570.81;5007023;28;20053;-80
2023/01/01 08:37:53;;;;;;;11.32;3.22;;;15.10;99.90;;;14.01;67.91;100563.25;5028116;28;20087;-80
2023/01/01 08:40:19;;;;;;;12.75;3.38;;;15.10;99.90;;;14.04;68.26;100578.09;5008286;28;20030;-79
2023/01/01 08:42:45;;;;;;;14.05;3.90;;;15.20;99.90;;;14.03;67.78;100579.91;5022717;28;20116;-79
2023/01/01 08:45:13;;;;;;;17.67;3.50;;;15.20;99.90;;;14.03;68.11;100590.50;5022904;28;20030;-81
2023/01/01 08:47:39;;;;;;;11.75;3.33;;;15.20;99.90;;;13.99;67.76;100602.22;5022964;28;20039;-81
2023/01/01 08:50:06;;;;;;;10.07;2.80;;;15.20;99.90;;;14.02;68.18;100617.91;5013758;28;20049;-81
2023/01/01 08:52:31;;;;;;;11.52;2.88;;;15.20;99.90;;;13.98;68.36;100611.13;5023885;28;20055;-79
2023/01/01 08:54:57;;;;;;;8.15;2.65;;;15.20;99.90;;;13.93;68.53;100613.19;5031360;28;20489;-79
2023/01/01 08:57:23;;;;;;;13.93;3.40;;;15.10;99.90;;;13.88;68.09;100615.28;5005158;28;20542;-80
2023/01/01 08:59:54;;;;;;;8.82;2.60;;;15.10;99.90;;;13.84;68.44;100614.59;5025566;28;20029;-80
2023/01/01 09:02:20;;;;;;;13.25;3.00;;;15.10;99.90;;;13.87;68.50;100622.38;5022087;28;20112;-80
2023/01/01 09:04:46;;;;;;;14.27;3.33;;;15.10;99.90;;;13.83;68.47;100618.22;5023339;28;20041;-79
2023/01/01 09:07:11;;;;;;;12.40;3.10;;;15.00;99.90;;;13.83;68.65;100612.91;5020012;28;20398;-80
2023/01/01 09:09:37;;;;;;;15.95;3.13;;;15.10;99.90;;;13.87;68.46;100608.28;5020738;28;20088;-79
2023/01/01 09:12:05;;;;;;;12.50;3.72;;;15.10;99.90;;;13.90;68.25;100608.94;5023001;28;20725;-80
2023/01/01 09:14:34;;;;;;;15.45;2.92;;;15.10;99.90;;;13.92;68.21;100607.03;5005553;28;20067;-81
2023/01/01 09:17:01;;;;;;;11.55;3.42;;;15.10;99.90;;;13.97;68.01;100629.72;5024942;28;20026;-80
2023/01/01 09:19:27;;;;;;;9.43;2.65;;;15.20;99.90;;;14.00;67.87;100622.47;5027934;28;20025;-80
2023/01/01 09:21:53;;;;;;;6.85;2.75;;;15.20;99.90;;;14.02;67.99;100636.44;5026092;28;20030;-80
2023/01/01 09:24:25;;;;;;;10.13;3.20;;;15.20;99.90;;;14.01;67.59;100642.69;5014084;28;20410;-80
2023/01/01 09:26:51;;;;;;;11.98;2.78;;;15.20;99.90;;;14.00;67.70;100646.28;5028421;28;20088;-81
2023/01/01 09:29:20;;;;;;;11.18;3.38;;;15.20;99.90;;;14.01;67.99;100653.25;5008079;28;20045;-79
2023/01/01 09:31:47;;;;;;;9.80;2.78;;;15.20;99.90;;;13.99;67.83;100641.91;5026680;28;20026;-80
2023/01/01 09:34:19;;;;;;;13.43;3.05;;;15.20;99.90;;;14.01;68.19;100650.63;5026763;28;20037;-81
2023/01/01 09:36:51;;;;;;;9.80;2.75;;;15.10;99.90;;;13.94;68.32;100652.81;5027050;28;20482;-80
2023/01/01 09:39:22;;;;;;;11.50;3.00;;;15.20;99.90;;;13.92;68.14;100659.97;5030614;28;20033;-79
2023/01/01 09:42:15;;;;;;;9.80;2.60;;;15.20;99.90;;;13.93;67.94;100655.53;5020988;28;20630;-80
2023/01/01 09:44:49;;;;;;;12.30;2.50;;;15.20;99.90;;;13.95;67.56;100641.28;5027539;28;20053;-80
2023/01/01 09:47:58;;;;;;;11.75;2.80;;;15.20;99.90;;;14.01;67.81;100652.44;5026694;28;20044;-79
2023/01/01 09:50:37;;;;;;;6.93;2.67;;;15.20;99.90;;;14.14;68.06;100654.19;5028481;28;20041;-81
2023/01/01 09:53:20;;;;;;;7.32;2.60;;;15.30;99.90;;;14.15;67.72;100674.44;5021887;28;20041;-81
2023/01/01 09:56:09;;;;;;;12.63;2.85;;;15.30;99.90;;;14.21;67.70;100682.94;5024829;28;20368;-81
2023/01/01 09:58:38;;;;;;;8.23;2.85;;;15.40;99.90;;;14.30;67.24;100688.53;5017615;28;20041;-80
2023/01/01 10:01:51;;;;;;;7.78;2.38;;;15.40;99.90;;;14.37;66.75;100691.66;5007841;28;20041;-81
2023/01/01 10:04:57;;;;;;;16.08;2.75;;;15.50;99.90;;;14.42;66.33;100689.53;5026635;28;20757;-80
2023/01/01 10:08:02;;;;;;;10.10;2.65;;;15.60;99.90;;;14.58;66.62;100694.78;5024979;28;20042;-80
2023/01/01 10:10:51;;;;;;;13.60;3.22;;;15.80;99.90;;;14.70;66.58;100693.13;5011508;28;20069;-80
2023/01/01 10:13:46;;;;;;;7.93;2.42;;;15.90;99.90;;;14.64;66.42;100693.50;5025365;28;20044;-80
2023/01/01 10:16:21;;;;;;;15.10;2.83;;;15.80;99.90;;;14.53;66.63;100700.31;5025276;28;20041;-81
2023/01/01 10:19:08;;;;;;;10.10;2.42;;;15.80;99.90;;;14.42;66.69;100692.19;5027259;28;20037;-81
2023/01/01 10:21:50;;;;;;;8.55;2.42;;;15.70;99.90;;;14.39;67.27;100707.44;5020723;28;20038;-78
2023/01/01 10:24:44;;;;;;;13.68;2.72;;;15.60;99.90;;;14.24;67.22;100712.75;5003160;28;20045;-79
2023/01/01 10:28:03;;;;;;;5.82;2.10;;;15.50;99.90;;;14.11;67.22;100707.34;5020548;28;20018;-80
2023/01/01 10:30:40;;;;;;;8.60;2.25;;;15.40;99.90;;;14.06;67.72;100708.56;5002094;28;20029;-80
2023/01/01 10:33:17;;;;;;;10.85;2.30;;;15.30;99.90;;;14.10;67.64;100716.25;5021702;28;20092;-78
2023/01/01 10:35:56;;;;;;;9.15;2.20;;;15.30;99.90;;;14.15;67.97;100730.06;5024445;28;21550;-80
2023/01/01 10:38:25;;;;;;;13.27;2.70;;;15.40;99.90;;;14.18;67.63;100728.16;5020607;28;20026;-78
2023/01/01 10:41:13;;;;;;;7.03;2.33;;;15.40;99.90;;;14.23;67.68;100734.03;5016916;28;20038;-80
2023/01/01 10:43:39;;;;;;;12.23;2.75;;;15.40;99.90;;;14.23;67.89;100740.16;5021321;28;20033;-80